עמוד ראשי
METAR-TAF:

METAR-TAF

שדות תעופה :

Cabo San Lucas, מקסיקו

קו רוחב: 22-56-51N, קו אורך: 109-56-13W, גובה: 210מטר

תצפית מזג אוויר נוכחית

הדו"ח נערך לפני 8 שעות ו 36דקות, בשעה 02:40 UTC
רוח 8קשר מכיוון דרום/דרום-מערב
טמפרטורת 25 צלסיוס
לחות 74%
לחץ 1010 hPa
ראות: 16.1קילומטר
שמיים נקיים

METAR: MMSL 150240Z 21008KT 10SM SKC 25/20 A2982

זמן: 04:16 (11:16 UTC)

תחזית

הדו"ח נערך לפני 5 שעות ו 37דקות, בשעה 05:39 UTC
תחזית בתוקף מ 15 ב 06 UTC עד 16 ב 06 UTC
רוח 5קשר מכיוון מערב/צפון-מערב
ראות: 10קילומטר
שמיים נקיים
זמנית מ -
15 ב 11 UTC עד 15 ב 14 UTC
עננים פזורים בגובה 1000רגל
מ 15 ב 1600UTC
רוח 10קשר מכיוון דרום/דרום-מזרח
ראות: 10קילומטר
שמיים נקיים
מ 16 ב 0000UTC
רוח 10קשר מכיוון מערב
ראות: 10קילומטר
שמיים נקיים

TAF: MMSL 150539Z 1506/1606 29005KT P6SM SKC TEMPO 1511/1514 SCT010 FM151600 15010KT P6SM SKC FM160000 27010KT P6SM SKC

תצפיות ותחזיות מזג אוויר לגבי יותר מ- 4,000 שדות תעופה ברחבי העולם. דוחות METAR ו- TAF.

התחנות הזמינות מסומנות בנקודות צהובות ואדומות על גבי המפה.

העבר את העכבר לנקודה הצבעונית על מנת לראות את שם התחנה.

לאחר מכן, לחץ כדי לראות את תוכן ואת תחזיות מזג האוויר.

כדי לשנות את המפה: לחץ על הכפתורים הירוקים עם הפלוס השחור כדי להתקרב; על הכפתור הירוק עם המקף כדי להתרחק; או בחיצים הירוקים למפות סמוכות.


METAR-TAF: